sensor_id;sensor_type;location;lat;lon;timestamp;P1;durP1;ratioP1;P2;durP2;ratioP2
4563;SDS011;2294;51.818;8.484;2022-10-16T00:00:46;6.23;;;3.60;;
4563;SDS011;2294;51.818;8.484;2022-10-16T00:03:13;6.50;;;4.00;;
4563;SDS011;2294;51.818;8.484;2022-10-16T00:05:40;6.87;;;3.77;;
4563;SDS011;2294;51.818;8.484;2022-10-16T00:08:11;6.93;;;3.70;;
4563;SDS011;2294;51.818;8.484;2022-10-16T00:10:38;5.50;;;3.60;;
4563;SDS011;2294;51.818;8.484;2022-10-16T00:13:06;4.73;;;3.37;;
4563;SDS011;2294;51.818;8.484;2022-10-16T00:15:34;5.37;;;3.73;;
4563;SDS011;2294;51.818;8.484;2022-10-16T00:18:04;5.57;;;3.40;;
4563;SDS011;2294;51.818;8.484;2022-10-16T00:20:33;5.97;;;3.90;;
4563;SDS011;2294;51.818;8.484;2022-10-16T00:23:01;4.53;;;4.03;;
4563;SDS011;2294;51.818;8.484;2022-10-16T00:25:30;9.63;;;3.77;;
4563;SDS011;2294;51.818;8.484;2022-10-16T00:27:58;8.80;;;4.10;;
4563;SDS011;2294;51.818;8.484;2022-10-16T00:30:26;9.40;;;4.17;;
4563;SDS011;2294;51.818;8.484;2022-10-16T00:32:54;10.30;;;3.87;;
4563;SDS011;2294;51.818;8.484;2022-10-16T00:35:21;5.23;;;3.40;;
4563;SDS011;2294;51.818;8.484;2022-10-16T00:37:48;5.00;;;3.70;;
4563;SDS011;2294;51.818;8.484;2022-10-16T00:40:15;5.93;;;3.77;;
4563;SDS011;2294;51.818;8.484;2022-10-16T00:42:43;4.90;;;3.27;;
4563;SDS011;2294;51.818;8.484;2022-10-16T00:45:10;8.33;;;4.30;;
4563;SDS011;2294;51.818;8.484;2022-10-16T00:47:38;7.20;;;3.50;;
4563;SDS011;2294;51.818;8.484;2022-10-16T00:50:08;5.03;;;4.00;;
4563;SDS011;2294;51.818;8.484;2022-10-16T00:52:39;4.63;;;4.03;;
4563;SDS011;2294;51.818;8.484;2022-10-16T00:55:10;9.87;;;5.00;;
4563;SDS011;2294;51.818;8.484;2022-10-16T00:57:37;15.60;;;4.70;;
4563;SDS011;2294;51.818;8.484;2022-10-16T01:00:08;4.67;;;4.13;;
4563;SDS011;2294;51.818;8.484;2022-10-16T01:02:36;9.10;;;4.30;;
4563;SDS011;2294;51.818;8.484;2022-10-16T01:05:03;6.30;;;4.20;;
4563;SDS011;2294;51.818;8.484;2022-10-16T01:07:34;7.53;;;4.87;;
4563;SDS011;2294;51.818;8.484;2022-10-16T01:10:13;5.17;;;4.30;;
4563;SDS011;2294;51.818;8.484;2022-10-16T01:12:47;6.87;;;4.43;;
4563;SDS011;2294;51.818;8.484;2022-10-16T01:15:22;11.40;;;4.83;;
4563;SDS011;2294;51.818;8.484;2022-10-16T01:17:57;6.50;;;4.30;;
4563;SDS011;2294;51.818;8.484;2022-10-16T01:20:28;5.83;;;4.40;;
4563;SDS011;2294;51.818;8.484;2022-10-16T01:23:01;5.37;;;4.20;;
4563;SDS011;2294;51.818;8.484;2022-10-16T01:25:39;6.63;;;4.50;;
4563;SDS011;2294;51.818;8.484;2022-10-16T01:28:19;6.70;;;3.90;;
4563;SDS011;2294;51.818;8.484;2022-10-16T01:30:52;7.73;;;3.83;;
4563;SDS011;2294;51.818;8.484;2022-10-16T01:33:24;7.97;;;4.50;;
4563;SDS011;2294;51.818;8.484;2022-10-16T01:35:58;5.30;;;4.53;;
4563;SDS011;2294;51.818;8.484;2022-10-16T01:38:29;8.83;;;5.47;;
4563;SDS011;2294;51.818;8.484;2022-10-16T01:41:01;5.83;;;3.87;;
4563;SDS011;2294;51.818;8.484;2022-10-16T01:43:35;6.93;;;4.40;;
4563;SDS011;2294;51.818;8.484;2022-10-16T01:46:05;7.40;;;3.70;;
4563;SDS011;2294;51.818;8.484;2022-10-16T01:48:33;8.90;;;5.40;;
4563;SDS011;2294;51.818;8.484;2022-10-16T01:51:04;5.30;;;4.40;;
4563;SDS011;2294;51.818;8.484;2022-10-16T01:53:35;4.97;;;3.93;;
4563;SDS011;2294;51.818;8.484;2022-10-16T01:56:03;8.63;;;5.27;;
4563;SDS011;2294;51.818;8.484;2022-10-16T01:58:37;6.30;;;5.20;;
4563;SDS011;2294;51.818;8.484;2022-10-16T02:01:08;7.57;;;4.67;;
4563;SDS011;2294;51.818;8.484;2022-10-16T02:03:37;6.40;;;4.43;;
4563;SDS011;2294;51.818;8.484;2022-10-16T02:06:08;10.77;;;4.93;;
4563;SDS011;2294;51.818;8.484;2022-10-16T02:08:35;13.10;;;4.83;;
4563;SDS011;2294;51.818;8.484;2022-10-16T02:11:04;4.97;;;4.47;;
4563;SDS011;2294;51.818;8.484;2022-10-16T02:13:31;5.97;;;4.20;;
4563;SDS011;2294;51.818;8.484;2022-10-16T02:16:05;7.77;;;3.70;;
4563;SDS011;2294;51.818;8.484;2022-10-16T02:18:32;5.50;;;4.27;;
4563;SDS011;2294;51.818;8.484;2022-10-16T02:21:00;6.33;;;4.10;;
4563;SDS011;2294;51.818;8.484;2022-10-16T02:23:35;6.07;;;4.67;;
4563;SDS011;2294;51.818;8.484;2022-10-16T02:26:07;7.23;;;4.40;;
4563;SDS011;2294;51.818;8.484;2022-10-16T02:28:39;6.00;;;4.50;;
4563;SDS011;2294;51.818;8.484;2022-10-16T02:31:11;9.70;;;4.90;;
4563;SDS011;2294;51.818;8.484;2022-10-16T02:33:42;6.73;;;5.30;;
4563;SDS011;2294;51.818;8.484;2022-10-16T02:36:11;5.30;;;4.20;;
4563;SDS011;2294;51.818;8.484;2022-10-16T02:38:38;23.33;;;4.23;;
4563;SDS011;2294;51.818;8.484;2022-10-16T02:41:06;5.37;;;4.27;;
4563;SDS011;2294;51.818;8.484;2022-10-16T02:43:34;7.07;;;4.47;;
4563;SDS011;2294;51.818;8.484;2022-10-16T02:46:00;8.60;;;5.60;;
4563;SDS011;2294;51.818;8.484;2022-10-16T02:48:29;5.07;;;4.13;;
4563;SDS011;2294;51.818;8.484;2022-10-16T02:50:56;11.70;;;4.20;;
4563;SDS011;2294;51.818;8.484;2022-10-16T02:53:22;6.07;;;4.47;;
4563;SDS011;2294;51.818;8.484;2022-10-16T02:55:49;6.30;;;3.53;;
4563;SDS011;2294;51.818;8.484;2022-10-16T02:58:16;6.40;;;3.60;;
4563;SDS011;2294;51.818;8.484;2022-10-16T03:00:43;3.67;;;3.30;;
4563;SDS011;2294;51.818;8.484;2022-10-16T03:03:10;5.43;;;4.00;;
4563;SDS011;2294;51.818;8.484;2022-10-16T03:05:39;7.17;;;3.43;;
4563;SDS011;2294;51.818;8.484;2022-10-16T03:08:06;6.20;;;3.53;;
4563;SDS011;2294;51.818;8.484;2022-10-16T03:10:32;5.63;;;4.30;;
4563;SDS011;2294;51.818;8.484;2022-10-16T03:12:59;4.07;;;3.47;;
4563;SDS011;2294;51.818;8.484;2022-10-16T03:15:26;4.47;;;3.53;;
4563;SDS011;2294;51.818;8.484;2022-10-16T03:17:53;4.10;;;3.50;;
4563;SDS011;2294;51.818;8.484;2022-10-16T03:20:20;4.57;;;3.23;;
4563;SDS011;2294;51.818;8.484;2022-10-16T03:22:48;10.40;;;3.20;;
4563;SDS011;2294;51.818;8.484;2022-10-16T03:25:15;3.60;;;3.07;;
4563;SDS011;2294;51.818;8.484;2022-10-16T03:27:42;3.30;;;2.93;;
4563;SDS011;2294;51.818;8.484;2022-10-16T03:30:09;4.53;;;3.17;;
4563;SDS011;2294;51.818;8.484;2022-10-16T03:32:37;7.67;;;3.00;;
4563;SDS011;2294;51.818;8.484;2022-10-16T03:35:04;3.03;;;2.77;;
4563;SDS011;2294;51.818;8.484;2022-10-16T03:37:31;7.17;;;3.50;;
4563;SDS011;2294;51.818;8.484;2022-10-16T03:40:00;3.07;;;2.33;;
4563;SDS011;2294;51.818;8.484;2022-10-16T03:42:27;3.97;;;2.80;;
4563;SDS011;2294;51.818;8.484;2022-10-16T03:44:53;4.97;;;3.07;;
4563;SDS011;2294;51.818;8.484;2022-10-16T03:47:20;6.50;;;2.63;;
4563;SDS011;2294;51.818;8.484;2022-10-16T03:49:48;2.60;;;2.30;;
4563;SDS011;2294;51.818;8.484;2022-10-16T03:52:15;4.53;;;2.60;;
4563;SDS011;2294;51.818;8.484;2022-10-16T03:54:43;4.10;;;2.30;;
4563;SDS011;2294;51.818;8.484;2022-10-16T03:57:11;4.90;;;2.80;;
4563;SDS011;2294;51.818;8.484;2022-10-16T03:59:38;4.00;;;2.43;;
4563;SDS011;2294;51.818;8.484;2022-10-16T04:02:04;11.50;;;2.33;;
4563;SDS011;2294;51.818;8.484;2022-10-16T04:04:31;3.10;;;2.40;;
4563;SDS011;2294;51.818;8.484;2022-10-16T04:06:58;3.00;;;2.43;;
4563;SDS011;2294;51.818;8.484;2022-10-16T04:09:25;5.17;;;2.63;;
4563;SDS011;2294;51.818;8.484;2022-10-16T04:11:52;6.90;;;2.80;;
4563;SDS011;2294;51.818;8.484;2022-10-16T04:14:20;5.07;;;2.20;;
4563;SDS011;2294;51.818;8.484;2022-10-16T04:16:47;5.80;;;2.10;;
4563;SDS011;2294;51.818;8.484;2022-10-16T04:19:14;2.30;;;2.10;;
4563;SDS011;2294;51.818;8.484;2022-10-16T04:21:41;2.27;;;2.07;;
4563;SDS011;2294;51.818;8.484;2022-10-16T04:24:08;3.40;;;2.67;;
4563;SDS011;2294;51.818;8.484;2022-10-16T04:26:36;3.07;;;2.87;;
4563;SDS011;2294;51.818;8.484;2022-10-16T04:29:03;3.00;;;2.70;;
4563;SDS011;2294;51.818;8.484;2022-10-16T04:31:32;4.13;;;2.90;;
4563;SDS011;2294;51.818;8.484;2022-10-16T04:34:00;3.67;;;2.10;;
4563;SDS011;2294;51.818;8.484;2022-10-16T04:36:26;2.67;;;2.30;;
4563;SDS011;2294;51.818;8.484;2022-10-16T04:38:53;2.93;;;2.53;;
4563;SDS011;2294;51.818;8.484;2022-10-16T04:41:20;4.20;;;2.60;;
4563;SDS011;2294;51.818;8.484;2022-10-16T04:43:47;7.53;;;2.40;;
4563;SDS011;2294;51.818;8.484;2022-10-16T04:46:14;4.63;;;2.07;;
4563;SDS011;2294;51.818;8.484;2022-10-16T04:48:42;2.27;;;2.07;;
4563;SDS011;2294;51.818;8.484;2022-10-16T04:51:09;3.00;;;2.03;;
4563;SDS011;2294;51.818;8.484;2022-10-16T04:53:36;3.70;;;2.40;;
4563;SDS011;2294;51.818;8.484;2022-10-16T04:56:03;3.33;;;2.60;;
4563;SDS011;2294;51.818;8.484;2022-10-16T04:58:30;1.83;;;1.73;;
4563;SDS011;2294;51.818;8.484;2022-10-16T05:00:56;2.53;;;2.33;;
4563;SDS011;2294;51.818;8.484;2022-10-16T05:03:23;2.60;;;2.30;;
4563;SDS011;2294;51.818;8.484;2022-10-16T05:05:51;10.30;;;2.60;;
4563;SDS011;2294;51.818;8.484;2022-10-16T05:08:18;2.53;;;1.97;;
4563;SDS011;2294;51.818;8.484;2022-10-16T05:10:46;2.27;;;2.07;;
4563;SDS011;2294;51.818;8.484;2022-10-16T05:13:12;2.17;;;1.97;;
4563;SDS011;2294;51.818;8.484;2022-10-16T05:15:39;2.80;;;2.50;;
4563;SDS011;2294;51.818;8.484;2022-10-16T05:18:06;3.80;;;2.33;;
4563;SDS011;2294;51.818;8.484;2022-10-16T05:20:34;2.47;;;2.27;;
4563;SDS011;2294;51.818;8.484;2022-10-16T05:23:02;1.93;;;1.83;;
4563;SDS011;2294;51.818;8.484;2022-10-16T05:25:29;5.17;;;2.60;;
4563;SDS011;2294;51.818;8.484;2022-10-16T05:27:56;6.47;;;2.47;;
4563;SDS011;2294;51.818;8.484;2022-10-16T05:30:23;2.60;;;2.40;;
4563;SDS011;2294;51.818;8.484;2022-10-16T05:32:50;2.30;;;2.10;;
4563;SDS011;2294;51.818;8.484;2022-10-16T05:35:17;2.00;;;1.87;;
4563;SDS011;2294;51.818;8.484;2022-10-16T05:37:44;2.40;;;2.20;;
4563;SDS011;2294;51.818;8.484;2022-10-16T05:40:13;2.63;;;2.30;;
4563;SDS011;2294;51.818;8.484;2022-10-16T05:42:41;2.67;;;2.47;;
4563;SDS011;2294;51.818;8.484;2022-10-16T05:45:09;7.03;;;3.20;;
4563;SDS011;2294;51.818;8.484;2022-10-16T05:47:36;5.73;;;2.07;;
4563;SDS011;2294;51.818;8.484;2022-10-16T05:50:04;2.30;;;2.10;;
4563;SDS011;2294;51.818;8.484;2022-10-16T05:52:31;10.93;;;2.10;;
4563;SDS011;2294;51.818;8.484;2022-10-16T05:54:58;5.73;;;2.40;;
4563;SDS011;2294;51.818;8.484;2022-10-16T05:57:26;2.83;;;2.53;;
4563;SDS011;2294;51.818;8.484;2022-10-16T05:59:53;3.93;;;2.73;;
4563;SDS011;2294;51.818;8.484;2022-10-16T06:02:20;5.50;;;2.50;;
4563;SDS011;2294;51.818;8.484;2022-10-16T06:04:47;2.03;;;1.83;;
4563;SDS011;2294;51.818;8.484;2022-10-16T06:07:13;5.93;;;2.47;;
4563;SDS011;2294;51.818;8.484;2022-10-16T06:09:40;3.13;;;2.07;;
4563;SDS011;2294;51.818;8.484;2022-10-16T06:12:07;2.60;;;2.40;;
4563;SDS011;2294;51.818;8.484;2022-10-16T06:14:35;5.30;;;2.60;;
4563;SDS011;2294;51.818;8.484;2022-10-16T06:17:02;2.90;;;2.70;;
4563;SDS011;2294;51.818;8.484;2022-10-16T06:19:29;2.33;;;2.13;;
4563;SDS011;2294;51.818;8.484;2022-10-16T06:21:56;3.00;;;2.70;;
4563;SDS011;2294;51.818;8.484;2022-10-16T06:24:23;2.60;;;2.40;;
4563;SDS011;2294;51.818;8.484;2022-10-16T06:26:50;4.30;;;2.40;;
4563;SDS011;2294;51.818;8.484;2022-10-16T06:29:17;2.60;;;2.37;;
4563;SDS011;2294;51.818;8.484;2022-10-16T06:31:46;4.83;;;2.40;;
4563;SDS011;2294;51.818;8.484;2022-10-16T06:34:12;5.10;;;2.43;;
4563;SDS011;2294;51.818;8.484;2022-10-16T06:36:40;2.50;;;2.30;;
4563;SDS011;2294;51.818;8.484;2022-10-16T06:39:08;2.67;;;2.47;;
4563;SDS011;2294;51.818;8.484;2022-10-16T06:41:35;1.97;;;1.83;;
4563;SDS011;2294;51.818;8.484;2022-10-16T06:44:04;2.30;;;2.10;;
4563;SDS011;2294;51.818;8.484;2022-10-16T06:46:31;6.23;;;3.00;;
4563;SDS011;2294;51.818;8.484;2022-10-16T06:48:59;3.17;;;2.67;;
4563;SDS011;2294;51.818;8.484;2022-10-16T06:51:26;4.30;;;2.60;;
4563;SDS011;2294;51.818;8.484;2022-10-16T06:53:54;4.27;;;2.37;;
4563;SDS011;2294;51.818;8.484;2022-10-16T06:56:23;4.20;;;2.40;;
4563;SDS011;2294;51.818;8.484;2022-10-16T06:58:52;12.93;;;2.67;;
4563;SDS011;2294;51.818;8.484;2022-10-16T07:01:20;11.30;;;3.00;;
4563;SDS011;2294;51.818;8.484;2022-10-16T07:03:49;4.43;;;2.50;;
4563;SDS011;2294;51.818;8.484;2022-10-16T07:06:18;5.07;;;2.60;;
4563;SDS011;2294;51.818;8.484;2022-10-16T07:08:47;3.53;;;2.60;;
4563;SDS011;2294;51.818;8.484;2022-10-16T07:11:15;2.97;;;2.33;;
4563;SDS011;2294;51.818;8.484;2022-10-16T07:13:43;3.20;;;2.40;;
4563;SDS011;2294;51.818;8.484;2022-10-16T07:16:12;7.93;;;2.50;;
4563;SDS011;2294;51.818;8.484;2022-10-16T07:18:40;2.23;;;2.03;;
4563;SDS011;2294;51.818;8.484;2022-10-16T07:21:10;3.97;;;2.27;;
4563;SDS011;2294;51.818;8.484;2022-10-16T07:23:40;4.40;;;2.90;;
4563;SDS011;2294;51.818;8.484;2022-10-16T07:26:07;2.70;;;2.40;;
4563;SDS011;2294;51.818;8.484;2022-10-16T07:28:34;3.47;;;2.17;;
4563;SDS011;2294;51.818;8.484;2022-10-16T07:31:01;3.17;;;1.93;;
4563;SDS011;2294;51.818;8.484;2022-10-16T07:33:29;2.40;;;2.00;;
4563;SDS011;2294;51.818;8.484;2022-10-16T07:35:56;3.97;;;1.90;;
4563;SDS011;2294;51.818;8.484;2022-10-16T07:38:23;2.67;;;2.40;;
4563;SDS011;2294;51.818;8.484;2022-10-16T07:40:57;2.13;;;2.00;;
4563;SDS011;2294;51.818;8.484;2022-10-16T07:43:24;5.03;;;1.70;;
4563;SDS011;2294;51.818;8.484;2022-10-16T07:45:52;4.03;;;1.80;;
4563;SDS011;2294;51.818;8.484;2022-10-16T07:48:20;6.50;;;1.80;;
4563;SDS011;2294;51.818;8.484;2022-10-16T07:50:47;3.20;;;1.67;;
4563;SDS011;2294;51.818;8.484;2022-10-16T07:53:14;2.50;;;1.87;;
4563;SDS011;2294;51.818;8.484;2022-10-16T07:55:41;1.93;;;1.63;;
4563;SDS011;2294;51.818;8.484;2022-10-16T07:58:09;4.10;;;1.93;;
4563;SDS011;2294;51.818;8.484;2022-10-16T08:00:37;2.70;;;1.60;;
4563;SDS011;2294;51.818;8.484;2022-10-16T08:03:04;1.77;;;1.67;;
4563;SDS011;2294;51.818;8.484;2022-10-16T08:05:31;1.60;;;1.50;;
4563;SDS011;2294;51.818;8.484;2022-10-16T08:07:59;2.67;;;2.10;;
4563;SDS011;2294;51.818;8.484;2022-10-16T08:10:27;1.47;;;1.37;;
4563;SDS011;2294;51.818;8.484;2022-10-16T08:12:54;1.60;;;1.50;;
4563;SDS011;2294;51.818;8.484;2022-10-16T08:15:22;1.73;;;1.47;;
4563;SDS011;2294;51.818;8.484;2022-10-16T08:17:59;1.73;;;1.63;;
4563;SDS011;2294;51.818;8.484;2022-10-16T08:20:28;1.53;;;1.43;;
4563;SDS011;2294;51.818;8.484;2022-10-16T08:22:55;2.03;;;1.60;;
4563;SDS011;2294;51.818;8.484;2022-10-16T08:25:22;2.23;;;2.00;;
4563;SDS011;2294;51.818;8.484;2022-10-16T08:27:50;4.33;;;2.93;;
4563;SDS011;2294;51.818;8.484;2022-10-16T08:30:17;9.90;;;5.57;;
4563;SDS011;2294;51.818;8.484;2022-10-16T08:32:46;8.03;;;1.83;;
4563;SDS011;2294;51.818;8.484;2022-10-16T08:35:13;2.40;;;2.10;;
4563;SDS011;2294;51.818;8.484;2022-10-16T08:37:41;4.00;;;1.97;;
4563;SDS011;2294;51.818;8.484;2022-10-16T08:40:12;4.40;;;1.90;;
4563;SDS011;2294;51.818;8.484;2022-10-16T08:42:47;2.87;;;1.53;;
4563;SDS011;2294;51.818;8.484;2022-10-16T08:45:31;1.80;;;1.50;;
4563;SDS011;2294;51.818;8.484;2022-10-16T08:48:14;2.17;;;1.70;;
4563;SDS011;2294;51.818;8.484;2022-10-16T08:50:45;2.53;;;1.80;;
4563;SDS011;2294;51.818;8.484;2022-10-16T08:53:16;3.27;;;1.70;;
4563;SDS011;2294;51.818;8.484;2022-10-16T08:55:49;2.03;;;1.60;;
4563;SDS011;2294;51.818;8.484;2022-10-16T10:28:32;7.13;;;1.70;;
4563;SDS011;2294;51.818;8.484;2022-10-16T10:31:10;2.43;;;1.20;;
4563;SDS011;2294;51.818;8.484;2022-10-16T10:33:43;2.10;;;0.97;;
4563;SDS011;2294;51.818;8.484;2022-10-16T10:36:17;6.20;;;1.70;;
4563;SDS011;2294;51.818;8.484;2022-10-16T10:40:33;2.83;;;1.17;;
4563;SDS011;2294;51.818;8.484;2022-10-16T10:43:09;3.90;;;1.07;;
4563;SDS011;2294;51.818;8.484;2022-10-16T10:45:46;3.33;;;1.27;;
4563;SDS011;2294;51.818;8.484;2022-10-16T10:48:26;6.10;;;1.07;;
4563;SDS011;2294;51.818;8.484;2022-10-16T10:51:07;1.23;;;1.10;;
4563;SDS011;2294;51.818;8.484;2022-10-16T10:53:40;3.63;;;1.10;;
4563;SDS011;2294;51.818;8.484;2022-10-16T10:56:16;3.17;;;0.80;;
4563;SDS011;2294;51.818;8.484;2022-10-16T10:58:57;0.90;;;0.80;;
4563;SDS011;2294;51.818;8.484;2022-10-16T11:01:41;4.53;;;1.23;;
4563;SDS011;2294;51.818;8.484;2022-10-16T11:07:19;5.40;;;1.10;;
4563;SDS011;2294;51.818;8.484;2022-10-16T11:09:51;3.27;;;0.90;;
4563;SDS011;2294;51.818;8.484;2022-10-16T11:12:24;0.83;;;0.70;;
4563;SDS011;2294;51.818;8.484;2022-10-16T11:14:56;2.50;;;0.80;;
4563;SDS011;2294;51.818;8.484;2022-10-16T11:17:28;5.63;;;0.87;;
4563;SDS011;2294;51.818;8.484;2022-10-16T11:20:00;1.67;;;1.03;;
4563;SDS011;2294;51.818;8.484;2022-10-16T11:22:37;2.20;;;1.03;;
4563;SDS011;2294;51.818;8.484;2022-10-16T11:25:12;1.20;;;0.90;;
4563;SDS011;2294;51.818;8.484;2022-10-16T11:27:43;5.23;;;1.30;;
4563;SDS011;2294;51.818;8.484;2022-10-16T11:30:17;2.70;;;1.27;;
4563;SDS011;2294;51.818;8.484;2022-10-16T11:32:50;2.90;;;1.03;;
4563;SDS011;2294;51.818;8.484;2022-10-16T11:35:28;1.60;;;1.10;;
4563;SDS011;2294;51.818;8.484;2022-10-16T11:38:04;2.37;;;1.23;;
4563;SDS011;2294;51.818;8.484;2022-10-16T11:40:38;2.70;;;1.60;;
4563;SDS011;2294;51.818;8.484;2022-10-16T11:43:12;3.63;;;1.10;;
4563;SDS011;2294;51.818;8.484;2022-10-16T11:45:43;4.00;;;1.43;;
4563;SDS011;2294;51.818;8.484;2022-10-16T11:48:16;0.93;;;0.80;;
4563;SDS011;2294;51.818;8.484;2022-10-16T11:50:50;2.20;;;1.50;;
4563;SDS011;2294;51.818;8.484;2022-10-16T11:53:22;1.10;;;0.90;;
4563;SDS011;2294;51.818;8.484;2022-10-16T11:55:56;2.67;;;0.90;;
4563;SDS011;2294;51.818;8.484;2022-10-16T11:58:26;1.43;;;0.90;;
4563;SDS011;2294;51.818;8.484;2022-10-16T12:00:59;1.17;;;0.93;;
4563;SDS011;2294;51.818;8.484;2022-10-16T12:03:33;0.93;;;0.80;;
4563;SDS011;2294;51.818;8.484;2022-10-16T12:06:10;2.03;;;0.70;;
4563;SDS011;2294;51.818;8.484;2022-10-16T12:08:52;1.77;;;0.90;;
4563;SDS011;2294;51.818;8.484;2022-10-16T12:11:24;1.57;;;0.80;;
4563;SDS011;2294;51.818;8.484;2022-10-16T12:14:07;1.50;;;0.80;;
4563;SDS011;2294;51.818;8.484;2022-10-16T12:16:52;2.53;;;0.90;;
4563;SDS011;2294;51.818;8.484;2022-10-16T12:19:21;1.73;;;0.77;;
4563;SDS011;2294;51.818;8.484;2022-10-16T12:21:49;1.90;;;0.70;;
4563;SDS011;2294;51.818;8.484;2022-10-16T12:24:21;8.83;;;1.03;;
4563;SDS011;2294;51.818;8.484;2022-10-16T12:26:55;1.90;;;1.27;;
4563;SDS011;2294;51.818;8.484;2022-10-16T12:29:26;1.03;;;0.93;;
4563;SDS011;2294;51.818;8.484;2022-10-16T12:31:59;1.10;;;0.80;;
4563;SDS011;2294;51.818;8.484;2022-10-16T12:34:27;2.00;;;0.83;;
4563;SDS011;2294;51.818;8.484;2022-10-16T12:36:55;10.07;;;3.87;;
4563;SDS011;2294;51.818;8.484;2022-10-16T12:39:35;5.43;;;1.83;;
4563;SDS011;2294;51.818;8.484;2022-10-16T12:42:03;3.37;;;0.87;;
4563;SDS011;2294;51.818;8.484;2022-10-16T12:44:34;1.20;;;0.70;;
4563;SDS011;2294;51.818;8.484;2022-10-16T12:47:02;0.80;;;0.70;;
4563;SDS011;2294;51.818;8.484;2022-10-16T12:49:32;4.57;;;1.10;;
4563;SDS011;2294;51.818;8.484;2022-10-16T12:52:03;0.90;;;0.70;;
4563;SDS011;2294;51.818;8.484;2022-10-16T12:54:31;1.50;;;0.73;;
4563;SDS011;2294;51.818;8.484;2022-10-16T12:57:05;2.67;;;0.80;;
4563;SDS011;2294;51.818;8.484;2022-10-16T13:03:19;1.70;;;0.70;;
4563;SDS011;2294;51.818;8.484;2022-10-16T13:06:04;5.93;;;1.73;;
4563;SDS011;2294;51.818;8.484;2022-10-16T13:08:44;7.03;;;1.37;;
4563;SDS011;2294;51.818;8.484;2022-10-16T13:11:29;2.13;;;1.00;;
4563;SDS011;2294;51.818;8.484;2022-10-16T13:14:22;2.80;;;0.70;;
4563;SDS011;2294;51.818;8.484;2022-10-16T13:17:06;2.30;;;0.90;;
4563;SDS011;2294;51.818;8.484;2022-10-16T13:19:44;1.17;;;1.00;;
4563;SDS011;2294;51.818;8.484;2022-10-16T13:22:20;1.30;;;1.03;;
4563;SDS011;2294;51.818;8.484;2022-10-16T13:24:55;0.93;;;0.77;;
4563;SDS011;2294;51.818;8.484;2022-10-16T13:27:35;2.30;;;1.07;;
4563;SDS011;2294;51.818;8.484;2022-10-16T13:30:11;2.00;;;0.80;;
4563;SDS011;2294;51.818;8.484;2022-10-16T13:32:43;4.97;;;1.13;;
4563;SDS011;2294;51.818;8.484;2022-10-16T13:35:20;1.60;;;0.70;;
4563;SDS011;2294;51.818;8.484;2022-10-16T13:37:49;2.13;;;0.80;;
4563;SDS011;2294;51.818;8.484;2022-10-16T13:40:21;1.93;;;0.83;;
4563;SDS011;2294;51.818;8.484;2022-10-16T13:42:49;1.50;;;0.87;;
4563;SDS011;2294;51.818;8.484;2022-10-16T13:45:17;3.53;;;1.57;;
4563;SDS011;2294;51.818;8.484;2022-10-16T13:47:45;1.17;;;0.80;;
4563;SDS011;2294;51.818;8.484;2022-10-16T13:50:13;3.07;;;0.80;;
4563;SDS011;2294;51.818;8.484;2022-10-16T13:52:42;2.93;;;0.90;;
4563;SDS011;2294;51.818;8.484;2022-10-16T13:55:10;1.13;;;0.80;;
4563;SDS011;2294;51.818;8.484;2022-10-16T13:57:38;1.27;;;0.90;;
4563;SDS011;2294;51.818;8.484;2022-10-16T14:00:17;0.90;;;0.87;;
4563;SDS011;2294;51.818;8.484;2022-10-16T14:02:44;2.53;;;1.00;;
4563;SDS011;2294;51.818;8.484;2022-10-16T14:05:16;1.37;;;0.70;;
4563;SDS011;2294;51.818;8.484;2022-10-16T14:07:48;2.40;;;1.10;;
4563;SDS011;2294;51.818;8.484;2022-10-16T14:10:20;1.80;;;0.83;;
4563;SDS011;2294;51.818;8.484;2022-10-16T14:12:56;3.07;;;1.00;;
4563;SDS011;2294;51.818;8.484;2022-10-16T14:15:24;2.53;;;0.80;;
4563;SDS011;2294;51.818;8.484;2022-10-16T14:17:51;2.73;;;0.93;;
4563;SDS011;2294;51.818;8.484;2022-10-16T14:20:19;3.80;;;0.70;;
4563;SDS011;2294;51.818;8.484;2022-10-16T14:22:59;1.97;;;0.87;;
4563;SDS011;2294;51.818;8.484;2022-10-16T14:25:28;2.57;;;0.80;;
4563;SDS011;2294;51.818;8.484;2022-10-16T14:27:57;2.80;;;1.37;;
4563;SDS011;2294;51.818;8.484;2022-10-16T14:30:25;5.67;;;0.97;;
4563;SDS011;2294;51.818;8.484;2022-10-16T14:32:54;2.90;;;1.00;;
4563;SDS011;2294;51.818;8.484;2022-10-16T14:35:24;2.30;;;0.90;;
4563;SDS011;2294;51.818;8.484;2022-10-16T14:37:53;3.00;;;1.20;;
4563;SDS011;2294;51.818;8.484;2022-10-16T14:40:24;1.40;;;1.10;;
4563;SDS011;2294;51.818;8.484;2022-10-16T14:42:52;1.80;;;0.70;;
4563;SDS011;2294;51.818;8.484;2022-10-16T14:45:20;3.03;;;0.90;;
4563;SDS011;2294;51.818;8.484;2022-10-16T14:47:50;2.90;;;0.70;;
4563;SDS011;2294;51.818;8.484;2022-10-16T14:50:20;1.00;;;0.77;;
4563;SDS011;2294;51.818;8.484;2022-10-16T14:52:47;3.57;;;0.80;;
4563;SDS011;2294;51.818;8.484;2022-10-16T14:55:14;1.10;;;0.80;;
4563;SDS011;2294;51.818;8.484;2022-10-16T14:57:43;1.10;;;0.70;;
4563;SDS011;2294;51.818;8.484;2022-10-16T15:00:16;8.90;;;0.90;;
4563;SDS011;2294;51.818;8.484;2022-10-16T15:02:45;3.17;;;0.90;;
4563;SDS011;2294;51.818;8.484;2022-10-16T15:05:14;1.87;;;0.70;;
4563;SDS011;2294;51.818;8.484;2022-10-16T15:07:44;3.60;;;0.80;;
4563;SDS011;2294;51.818;8.484;2022-10-16T15:10:11;3.80;;;1.20;;
4563;SDS011;2294;51.818;8.484;2022-10-16T15:12:43;1.00;;;0.90;;
4563;SDS011;2294;51.818;8.484;2022-10-16T15:17:59;1.10;;;0.70;;
4563;SDS011;2294;51.818;8.484;2022-10-16T15:20:27;3.27;;;0.97;;
4563;SDS011;2294;51.818;8.484;2022-10-16T15:22:56;4.00;;;0.80;;
4563;SDS011;2294;51.818;8.484;2022-10-16T15:25:31;1.17;;;0.80;;
4563;SDS011;2294;51.818;8.484;2022-10-16T15:28:02;1.17;;;0.87;;
4563;SDS011;2294;51.818;8.484;2022-10-16T15:30:30;1.50;;;0.80;;
4563;SDS011;2294;51.818;8.484;2022-10-16T15:32:57;1.37;;;0.87;;
4563;SDS011;2294;51.818;8.484;2022-10-16T15:35:24;1.43;;;0.90;;
4563;SDS011;2294;51.818;8.484;2022-10-16T15:37:57;3.43;;;0.93;;
4563;SDS011;2294;51.818;8.484;2022-10-16T15:40:24;4.13;;;0.90;;
4563;SDS011;2294;51.818;8.484;2022-10-16T15:42:51;2.73;;;1.00;;
4563;SDS011;2294;51.818;8.484;2022-10-16T15:45:19;3.40;;;1.50;;
4563;SDS011;2294;51.818;8.484;2022-10-16T15:47:46;1.30;;;1.00;;
4563;SDS011;2294;51.818;8.484;2022-10-16T15:50:14;1.93;;;1.20;;
4563;SDS011;2294;51.818;8.484;2022-10-16T15:52:41;2.23;;;0.97;;
4563;SDS011;2294;51.818;8.484;2022-10-16T15:55:09;4.87;;;1.50;;
4563;SDS011;2294;51.818;8.484;2022-10-16T15:57:38;2.40;;;1.23;;
4563;SDS011;2294;51.818;8.484;2022-10-16T16:00:06;3.03;;;1.33;;
4563;SDS011;2294;51.818;8.484;2022-10-16T16:02:36;10.80;;;2.33;;
4563;SDS011;2294;51.818;8.484;2022-10-16T16:05:03;2.03;;;1.83;;
4563;SDS011;2294;51.818;8.484;2022-10-16T16:07:32;3.73;;;1.10;;
4563;SDS011;2294;51.818;8.484;2022-10-16T16:09:59;5.43;;;1.60;;
4563;SDS011;2294;51.818;8.484;2022-10-16T16:12:27;4.23;;;1.37;;
4563;SDS011;2294;51.818;8.484;2022-10-16T16:14:53;2.83;;;1.50;;
4563;SDS011;2294;51.818;8.484;2022-10-16T16:17:20;3.00;;;1.20;;
4563;SDS011;2294;51.818;8.484;2022-10-16T16:19:48;2.00;;;1.70;;
4563;SDS011;2294;51.818;8.484;2022-10-16T16:22:15;2.60;;;1.70;;
4563;SDS011;2294;51.818;8.484;2022-10-16T16:24:43;8.77;;;1.53;;
4563;SDS011;2294;51.818;8.484;2022-10-16T16:27:10;2.90;;;1.47;;
4563;SDS011;2294;51.818;8.484;2022-10-16T16:29:38;1.93;;;1.70;;
4563;SDS011;2294;51.818;8.484;2022-10-16T16:32:05;4.10;;;1.30;;
4563;SDS011;2294;51.818;8.484;2022-10-16T16:34:32;2.30;;;1.70;;
4563;SDS011;2294;51.818;8.484;2022-10-16T16:37:00;1.83;;;1.30;;
4563;SDS011;2294;51.818;8.484;2022-10-16T16:39:27;4.03;;;1.73;;
4563;SDS011;2294;51.818;8.484;2022-10-16T16:41:55;3.30;;;1.50;;
4563;SDS011;2294;51.818;8.484;2022-10-16T16:44:23;4.10;;;2.40;;
4563;SDS011;2294;51.818;8.484;2022-10-16T16:46:50;2.40;;;1.80;;
4563;SDS011;2294;51.818;8.484;2022-10-16T16:49:17;5.90;;;5.00;;
4563;SDS011;2294;51.818;8.484;2022-10-16T16:51:44;4.67;;;4.07;;
4563;SDS011;2294;51.818;8.484;2022-10-16T16:54:15;6.30;;;4.40;;
4563;SDS011;2294;51.818;8.484;2022-10-16T16:56:42;7.50;;;5.17;;
4563;SDS011;2294;51.818;8.484;2022-10-16T16:59:10;7.80;;;4.70;;
4563;SDS011;2294;51.818;8.484;2022-10-16T17:01:39;7.27;;;4.40;;
4563;SDS011;2294;51.818;8.484;2022-10-16T17:04:06;14.83;;;4.03;;
4563;SDS011;2294;51.818;8.484;2022-10-16T17:06:33;7.73;;;3.67;;
4563;SDS011;2294;51.818;8.484;2022-10-16T17:09:00;6.20;;;2.83;;
4563;SDS011;2294;51.818;8.484;2022-10-16T17:11:30;4.40;;;3.47;;